createdAt,value
2022-08-05T00:00:20.846Z,98379.88
2022-08-05T00:02:51.717Z,98316.88
2022-08-05T00:06:02.039Z,98291.81
2022-08-05T00:08:34.664Z,98314.97
2022-08-05T00:11:01.621Z,98268.44
2022-08-05T00:13:39.335Z,98255.41
2022-08-05T00:16:09.572Z,98242.38
2022-08-05T00:18:39.760Z,98234.47
2022-08-05T00:21:08.483Z,98231.13
2022-08-05T00:23:46.328Z,98226.13
2022-08-05T00:26:20.888Z,98216.41
2022-08-05T00:28:49.236Z,98207.91
2022-08-05T00:31:16.326Z,98206.06
2022-08-05T00:34:53.476Z,98213.22
2022-08-05T00:37:09.859Z,98214.50
2022-08-05T00:39:19.831Z,98234.16
2022-08-05T00:41:54.885Z,98237.38
2022-08-05T00:44:30.785Z,98255.25
2022-08-05T00:47:03.954Z,98274.50
2022-08-05T00:49:44.716Z,98301.53
2022-08-05T00:52:28.663Z,98363.22
2022-08-05T00:54:56.241Z,98400.00
2022-08-05T00:57:25.141Z,98444.34
2022-08-05T00:59:54.565Z,98457.03
2022-08-05T01:02:21.226Z,98470.75
2022-08-05T01:04:51.047Z,98479.09
2022-08-05T01:07:17.853Z,98463.84
2022-08-05T01:09:45.116Z,98445.09
2022-08-05T01:12:18.860Z,98413.81
2022-08-05T01:14:55.909Z,98409.00
2022-08-05T01:17:32.072Z,98395.81
2022-08-05T01:20:30.026Z,98388.28
2022-08-05T01:23:23.716Z,98398.50
2022-08-05T01:26:08.855Z,98405.63
2022-08-05T01:28:51.871Z,98407.31
2022-08-05T01:31:44.632Z,98364.47
2022-08-05T01:34:20.305Z,98335.13
2022-08-05T01:36:56.946Z,98312.22
2022-08-05T01:39:46.728Z,98311.75
2022-08-05T01:42:17.261Z,98304.81
2022-08-05T01:44:52.767Z,98320.34
2022-08-05T01:47:22.289Z,98295.94
2022-08-05T01:50:00.438Z,98275.84
2022-08-05T01:52:31.652Z,98270.28
2022-08-05T01:55:04.403Z,98268.75
2022-08-05T01:58:29.946Z,98287.63
2022-08-05T02:00:29.952Z,98300.00
2022-08-05T02:03:16.310Z,98313.09
2022-08-05T02:05:57.843Z,98368.09
2022-08-05T02:08:31.330Z,98436.50
2022-08-05T02:11:33.993Z,98489.00
2022-08-05T02:14:17.221Z,98494.66
2022-08-05T02:16:52.913Z,98559.53
2022-08-05T02:19:28.582Z,98606.31
2022-08-05T02:22:25.557Z,98597.28
2022-08-05T02:25:00.183Z,98589.75
2022-08-05T02:27:29.992Z,98571.41
2022-08-05T02:30:16.817Z,98544.81
2022-08-05T02:32:48.893Z,98524.75
2022-08-05T02:35:27.729Z,98515.03
2022-08-05T02:37:56.645Z,98471.78
2022-08-05T02:40:27.545Z,98443.72
2022-08-05T02:42:56.586Z,98430.50
2022-08-05T02:45:25.613Z,98418.78
2022-08-05T02:48:07.531Z,98451.56
2022-08-05T02:50:43.913Z,98445.34
2022-08-05T02:53:16.183Z,98423.81
2022-08-05T02:55:54.942Z,98437.66
2022-08-05T02:58:27.507Z,98446.69
2022-08-05T03:00:59.018Z,98455.69
2022-08-05T03:03:33.936Z,98448.53
2022-08-05T03:06:53.762Z,98440.81
2022-08-05T03:08:52.169Z,98447.34
2022-08-05T03:11:56.585Z,98473.25
2022-08-05T03:14:13.536Z,98480.59
2022-08-05T03:16:40.572Z,98516.84
2022-08-05T03:19:12.805Z,98514.72
2022-08-05T03:21:48.977Z,98528.72
2022-08-05T03:24:27.534Z,98558.75
2022-08-05T03:26:57.776Z,98583.47
2022-08-05T03:29:24.600Z,98572.13
2022-08-05T03:32:12.163Z,98547.44
2022-08-05T03:34:42.440Z,98526.50
2022-08-05T03:37:18.353Z,98514.47
2022-08-05T03:40:01.466Z,98492.75
2022-08-05T03:42:32.952Z,98514.13
2022-08-05T03:45:21.439Z,98524.63
2022-08-05T03:47:49.822Z,98537.84
2022-08-05T03:50:16.620Z,98526.63
2022-08-05T03:55:50.797Z,98526.81
2022-08-05T03:56:11.897Z,98502.13
2022-08-05T03:58:44.770Z,98520.66
2022-08-05T04:01:13.457Z,98529.88
2022-08-05T04:04:05.390Z,98529.38
2022-08-05T04:06:34.046Z,98521.72
2022-08-05T04:09:01.880Z,98559.16
2022-08-05T04:11:42.550Z,98554.16
2022-08-05T04:14:18.033Z,98541.28
2022-08-05T04:16:45.131Z,98563.69
2022-08-05T04:19:12.921Z,98554.66
2022-08-05T04:22:09.916Z,98585.84
2022-08-05T04:24:27.742Z,98582.84
2022-08-05T04:26:54.617Z,98584.84
2022-08-05T04:29:24.792Z,98608.22
2022-08-05T04:31:53.817Z,98600.56
2022-08-05T04:34:33.091Z,98600.88
2022-08-05T04:37:01.047Z,98597.59
2022-08-05T04:39:30.411Z,98582.88
2022-08-05T04:41:57.443Z,98583.25
2022-08-05T04:44:30.082Z,98562.53
2022-08-05T04:47:09.170Z,98571.69
2022-08-05T04:49:38.882Z,98549.97
2022-08-05T04:52:24.575Z,98554.00
2022-08-05T04:54:56.922Z,98542.13
2022-08-05T04:57:28.425Z,98545.81
2022-08-05T04:59:55.475Z,98528.78
2022-08-05T05:02:37.282Z,98499.00
2022-08-05T05:05:25.907Z,98495.28
2022-08-05T05:07:56.600Z,98493.59
2022-08-05T05:10:29.716Z,98494.25
2022-08-05T05:12:56.731Z,98492.91
2022-08-05T05:15:57.927Z,98471.66
2022-08-05T05:18:31.315Z,98465.50
2022-08-05T05:21:01.128Z,98463.31
2022-08-05T05:23:39.348Z,98451.78
2022-08-05T05:26:14.401Z,98450.97
2022-08-05T05:28:42.909Z,98471.72
2022-08-05T05:31:12.152Z,98477.06
2022-08-05T05:33:59.512Z,98478.72
2022-08-05T05:36:25.439Z,98472.03
2022-08-05T05:38:57.092Z,98475.75
2022-08-05T05:41:23.918Z,98484.28
2022-08-05T05:43:57.174Z,98505.69
2022-08-05T05:46:26.736Z,98508.88
2022-08-05T05:48:53.360Z,98531.75
2022-08-05T05:51:24.369Z,98557.00
2022-08-05T05:53:57.409Z,98559.69
2022-08-05T05:56:32.845Z,98590.56
2022-08-05T05:59:06.361Z,98576.06
2022-08-05T06:01:40.043Z,98565.69
2022-08-05T06:04:12.736Z,98568.88
2022-08-05T06:06:42.568Z,98566.22
2022-08-05T06:09:09.504Z,98561.53
2022-08-05T06:11:59.608Z,98555.19
2022-08-05T06:14:29.585Z,98558.19
2022-08-05T06:16:57.077Z,98571.06
2022-08-05T06:19:26.199Z,98585.78
2022-08-05T06:22:06.378Z,98593.13
2022-08-05T06:24:34.028Z,98575.44
2022-08-05T06:27:01.989Z,98574.09
2022-08-05T06:29:46.472Z,98583.63
2022-08-05T06:32:21.351Z,98610.72
2022-08-05T06:34:57.470Z,98616.75
2022-08-05T06:37:56.251Z,98628.44
2022-08-05T06:40:13.726Z,98640.63
2022-08-05T06:42:40.933Z,98633.63
2022-08-05T06:45:09.219Z,98632.78
2022-08-05T06:48:36.988Z,98619.09
2022-08-05T06:50:23.748Z,98613.38
2022-08-05T06:53:03.600Z,98610.56
2022-08-05T06:55:36.506Z,98624.75
2022-08-05T06:58:29.565Z,98624.78
2022-08-05T07:00:51.131Z,98619.22
2022-08-05T07:03:17.848Z,98613.38
2022-08-05T07:05:46.278Z,98599.34
2022-08-05T07:08:13.202Z,98599.50
2022-08-05T07:10:52.780Z,98591.66
2022-08-05T07:13:57.913Z,98595.00
2022-08-05T07:17:58.981Z,98576.09
2022-08-05T07:20:23.153Z,98582.28
2022-08-05T07:22:22.092Z,98595.00
2022-08-05T07:24:57.050Z,98605.88
2022-08-05T07:27:23.942Z,98615.91
2022-08-05T07:30:25.542Z,98625.81
2022-08-05T07:32:43.712Z,98643.22
2022-08-05T07:35:56.019Z,98632.84
2022-08-05T07:38:00.980Z,98623.47
2022-08-05T07:40:32.908Z,98622.13
2022-08-05T07:42:59.966Z,98618.94
2022-08-05T07:45:58.215Z,98614.09
2022-08-05T07:49:03.125Z,98604.69
2022-08-05T07:51:23.050Z,98594.50
2022-08-05T07:53:52.897Z,98591.97
2022-08-05T07:57:00.887Z,98594.16
2022-08-05T07:59:08.652Z,98591.94
2022-08-05T08:01:35.587Z,98575.31
2022-08-05T08:04:23.030Z,98574.94
2022-08-05T08:07:05.456Z,98583.19
2022-08-05T08:09:33.881Z,98558.66
2022-08-05T08:12:08.326Z,98546.63
2022-08-05T08:14:46.663Z,98572.81
2022-08-05T08:17:16.276Z,98594.22
2022-08-05T08:20:22.635Z,98604.41
2022-08-05T08:22:30.740Z,98621.72
2022-08-05T08:25:02.880Z,98622.19
2022-08-05T08:27:40.202Z,98638.94
2022-08-05T08:30:28.536Z,98653.19
2022-08-05T08:33:08.769Z,98675.47
2022-08-05T08:35:40.940Z,98664.63
2022-08-05T08:38:16.257Z,98662.59
2022-08-05T08:40:45.712Z,98663.25
2022-08-05T08:44:54.731Z,98675.50
2022-08-05T08:46:09.875Z,98672.66
2022-08-05T08:49:06.386Z,98657.94
2022-08-05T08:52:03.127Z,98657.56
2022-08-05T08:54:20.967Z,98646.53
2022-08-05T08:56:54.184Z,98674.63
2022-08-05T08:59:24.125Z,98684.34
2022-08-05T09:02:01.419Z,98687.19
2022-08-05T09:04:30.146Z,98696.75
2022-08-05T09:06:57.477Z,98708.66
2022-08-05T09:09:25.039Z,98729.56
2022-08-05T09:11:57.791Z,98732.59
2022-08-05T09:14:59.093Z,98727.06
2022-08-05T09:17:43.253Z,98718.84
2022-08-05T09:20:06.703Z,98723.69
2022-08-05T09:23:19.192Z,98723.19
2022-08-05T09:26:03.018Z,98700.44
2022-08-05T09:28:33.373Z,98712.16
2022-08-05T09:31:23.394Z,98700.44
2022-08-05T09:33:59.303Z,98711.16
2022-08-05T09:36:56.245Z,98706.75
2022-08-05T09:39:41.392Z,98702.03
2022-08-05T09:42:24.474Z,98682.66
2022-08-05T09:44:57.170Z,98674.69
2022-08-05T09:47:48.086Z,98671.28
2022-08-05T09:50:38.896Z,98672.94
2022-08-05T09:53:06.620Z,98675.75
2022-08-05T09:55:58.717Z,98685.53
2022-08-05T09:58:23.824Z,98676.06
2022-08-05T10:01:13.324Z,98682.16
2022-08-05T10:03:58.557Z,98683.88
2022-08-05T10:06:29.509Z,98695.00
2022-08-05T10:09:24.988Z,98704.03
2022-08-05T10:11:55.508Z,98707.47
2022-08-05T10:14:23.920Z,98696.88
2022-08-05T10:16:57.185Z,98702.09
2022-08-05T10:20:03.283Z,98712.78
2022-08-05T10:22:15.705Z,98699.34
2022-08-05T10:24:56.930Z,98695.69
2022-08-05T10:27:26.315Z,98706.28
2022-08-05T10:30:41.842Z,98696.88
2022-08-05T10:33:02.789Z,98699.88
2022-08-05T10:35:40.385Z,98697.22
2022-08-05T10:38:12.318Z,98707.69
2022-08-05T10:40:57.822Z,98709.88
2022-08-05T10:43:54.758Z,98701.34
2022-08-05T10:46:23.760Z,98713.94
2022-08-05T10:49:01.460Z,98702.97
2022-08-05T10:51:57.537Z,98704.00
2022-08-05T10:54:56.245Z,98716.78
2022-08-05T10:57:30.814Z,98700.28
2022-08-05T11:00:23.253Z,98699.78
2022-08-05T11:02:58.978Z,98705.25
2022-08-05T11:06:08.374Z,98717.47
2022-08-05T11:09:17.492Z,98720.00
2022-08-05T11:11:53.452Z,98720.81
2022-08-05T11:18:07.474Z,98747.00
2022-08-05T11:20:45.999Z,98738.50
2022-08-05T11:24:02.218Z,98723.28
2022-08-05T11:26:28.484Z,98728.13
2022-08-05T11:29:11.617Z,98727.34
2022-08-05T11:31:56.930Z,98745.16
2022-08-05T11:34:50.832Z,98770.50
2022-08-05T11:38:26.542Z,98772.03
2022-08-05T11:41:34.246Z,98781.69
2022-08-05T11:44:12.969Z,98800.53
2022-08-05T11:47:11.000Z,98819.00
2022-08-05T11:49:39.350Z,98809.66
2022-08-05T11:52:11.897Z,98812.03
2022-08-05T11:54:40.368Z,98797.69
2022-08-05T11:57:39.359Z,98789.50
2022-08-05T11:59:55.430Z,98788.47
2022-08-05T12:02:33.156Z,98806.94
2022-08-05T12:05:07.996Z,98817.66
2022-08-05T12:08:10.329Z,98843.28
2022-08-05T12:10:43.272Z,98840.75
2022-08-05T12:15:45.289Z,98837.53
2022-08-05T12:18:32.327Z,98787.00
2022-08-05T12:21:17.399Z,98754.19
2022-08-05T12:24:07.786Z,98753.66
2022-08-05T12:26:44.145Z,98766.72
2022-08-05T12:29:25.178Z,98762.53
2022-08-05T12:32:02.092Z,98774.44
2022-08-05T12:34:37.238Z,98775.53
2022-08-05T12:37:16.257Z,98776.19
2022-08-05T12:39:45.185Z,98782.88
2022-08-05T12:42:19.435Z,98785.59
2022-08-05T12:44:47.573Z,98796.56
2022-08-05T12:47:26.782Z,98796.22
2022-08-05T12:50:04.009Z,98799.38
2022-08-05T12:55:22.470Z,98791.47
2022-08-05T12:58:38.434Z,98792.59
2022-08-05T13:02:01.518Z,98797.91
2022-08-05T13:03:32.185Z,98810.09
2022-08-05T13:06:01.023Z,98805.63
2022-08-05T13:08:32.404Z,98790.88
2022-08-05T13:11:04.259Z,98795.47
2022-08-05T13:14:04.698Z,98796.34
2022-08-05T13:16:19.927Z,98801.84
2022-08-05T13:18:55.265Z,98798.59
2022-08-05T13:21:28.003Z,98793.44
2022-08-05T13:24:04.962Z,98800.59
2022-08-05T13:26:31.666Z,98796.75
2022-08-05T13:28:59.258Z,98800.09
2022-08-05T13:31:33.938Z,98797.78
2022-08-05T13:34:20.954Z,98796.06
2022-08-05T13:36:52.411Z,98801.94
2022-08-05T13:40:12.886Z,98797.16
2022-08-05T13:42:05.922Z,98803.84
2022-08-05T13:44:32.617Z,98799.19
2022-08-05T13:47:08.535Z,98792.03
2022-08-05T13:49:36.243Z,98793.31
2022-08-05T13:52:14.329Z,98801.16
2022-08-05T13:54:41.378Z,98799.72
2022-08-05T13:57:09.353Z,98798.31
2022-08-05T13:59:38.321Z,98793.47
2022-08-05T14:02:26.600Z,98786.66
2022-08-05T14:05:11.984Z,98784.69
2022-08-05T14:07:59.919Z,98789.75
2022-08-05T14:10:31.279Z,98787.78
2022-08-05T14:12:58.537Z,98797.09
2022-08-05T14:16:05.724Z,98791.09
2022-08-05T14:18:14.604Z,98799.28
2022-08-05T14:20:46.805Z,98798.91
2022-08-05T14:23:18.981Z,98802.63
2022-08-05T14:25:54.264Z,98792.44
2022-08-05T14:28:26.872Z,98805.72
2022-08-05T14:30:54.437Z,98804.44
2022-08-05T14:33:22.567Z,98797.84
2022-08-05T14:35:51.717Z,98799.34
2022-08-05T14:38:32.041Z,98802.97
2022-08-05T14:41:06.382Z,98792.22
2022-08-05T14:44:00.238Z,98789.69
2022-08-05T14:46:28.276Z,98791.88
2022-08-05T14:48:55.802Z,98791.19
2022-08-05T14:51:23.946Z,98785.97
2022-08-05T14:54:26.749Z,98795.72
2022-08-05T14:56:44.386Z,98793.84
2022-08-05T14:59:14.072Z,98785.34
2022-08-05T15:01:48.183Z,98790.53
2022-08-05T15:04:17.562Z,98797.13
2022-08-05T15:06:49.485Z,98800.34
2022-08-05T15:09:50.824Z,98798.22
2022-08-05T15:12:05.606Z,98803.16
2022-08-05T15:14:35.034Z,98790.69
2022-08-05T15:17:04.672Z,98800.06
2022-08-05T15:19:32.408Z,98800.75
2022-08-05T15:22:01.331Z,98800.84
2022-08-05T15:24:29.081Z,98798.75
2022-08-05T15:26:57.007Z,98802.66
2022-08-05T15:29:23.929Z,98797.25
2022-08-05T15:31:57.512Z,98798.53
2022-08-05T15:34:33.249Z,98798.69
2022-08-05T15:37:06.268Z,98807.75
2022-08-05T15:41:02.714Z,98813.19
2022-08-05T15:42:53.549Z,98815.41
2022-08-05T15:45:09.906Z,98820.16
2022-08-05T15:47:37.072Z,98819.13
2022-08-05T15:50:07.237Z,98816.56
2022-08-05T15:52:53.392Z,98813.00
2022-08-05T15:55:24.516Z,98823.53
2022-08-05T15:57:51.921Z,98828.81
2022-08-05T16:00:26.285Z,98827.63
2022-08-05T16:02:59.501Z,98827.13
2022-08-05T16:05:28.199Z,98829.22
2022-08-05T16:07:55.188Z,98829.75
2022-08-05T16:10:25.549Z,98826.44
2022-08-05T16:12:56.142Z,98831.41
2022-08-05T16:15:23.374Z,98830.25
2022-08-05T16:17:57.448Z,98838.66
2022-08-05T16:20:25.386Z,98839.28
2022-08-05T16:22:51.976Z,98837.78
2022-08-05T16:25:18.651Z,98841.47
2022-08-05T16:28:00.220Z,98845.75
2022-08-05T16:30:32.443Z,98852.63
2022-08-05T16:33:00.161Z,98854.09
2022-08-05T16:35:28.494Z,98853.03
2022-08-05T16:38:03.685Z,98857.59
2022-08-05T16:40:52.067Z,98858.31
2022-08-05T16:43:28.209Z,98862.31
2022-08-05T16:46:03.478Z,98865.34
2022-08-05T16:48:36.448Z,98867.88
2022-08-05T16:51:08.667Z,98869.16
2022-08-05T16:54:03.171Z,98867.69
2022-08-05T16:56:25.879Z,98874.22
2022-08-05T16:58:52.476Z,98882.59
2022-08-05T17:01:19.280Z,98880.56
2022-08-05T17:03:46.313Z,98881.09
2022-08-05T17:06:13.414Z,98882.47
2022-08-05T17:08:52.817Z,98883.31
2022-08-05T17:11:25.662Z,98887.84
2022-08-05T17:14:00.230Z,98878.47
2022-08-05T17:16:36.562Z,98887.03
2022-08-05T17:19:09.657Z,98880.78
2022-08-05T17:21:37.713Z,98883.78
2022-08-05T17:24:28.183Z,98894.97
2022-08-05T17:26:56.111Z,98891.03
2022-08-05T17:29:33.523Z,98892.84
2022-08-05T17:32:06.731Z,98897.41
2022-08-05T17:34:35.157Z,98897.56
2022-08-05T17:37:01.990Z,98894.09
2022-08-05T17:39:34.423Z,98897.81
2022-08-05T17:42:19.889Z,98896.66
2022-08-05T17:44:50.074Z,98906.56
2022-08-05T17:47:22.138Z,98907.72
2022-08-05T17:50:03.560Z,98910.41
2022-08-05T17:52:34.777Z,98904.53
2022-08-05T17:55:21.045Z,98911.63
2022-08-05T17:57:50.065Z,98908.09
2022-08-05T18:00:17.429Z,98914.50
2022-08-05T18:02:46.806Z,98907.13
2022-08-05T18:05:16.633Z,98909.34
2022-08-05T18:07:44.514Z,98914.13
2022-08-05T18:10:20.522Z,98918.13
2022-08-05T18:12:48.815Z,98920.94
2022-08-05T18:15:15.475Z,98930.41
2022-08-05T18:18:01.596Z,98933.91
2022-08-05T18:20:29.347Z,98931.31
2022-08-05T18:23:00.425Z,98939.28
2022-08-05T18:25:33.106Z,98940.06
2022-08-05T18:28:01.706Z,98949.94
2022-08-05T18:30:32.326Z,98954.63
2022-08-05T18:33:00.443Z,98953.28
2022-08-05T18:36:00.067Z,98958.25
2022-08-05T18:38:18.957Z,98965.22
2022-08-05T18:41:56.032Z,98972.97
2022-08-05T18:43:37.964Z,98973.91
2022-08-05T18:46:09.743Z,98982.63
2022-08-05T18:48:36.763Z,98992.69
2022-08-05T18:52:04.190Z,98990.09
2022-08-05T18:54:13.716Z,99007.72
2022-08-05T18:56:40.518Z,99009.63
2022-08-05T18:59:43.587Z,99016.09
2022-08-05T19:01:57.060Z,99020.50
2022-08-05T19:04:25.697Z,99024.78
2022-08-05T19:06:53.466Z,99030.28
2022-08-05T19:09:21.066Z,99032.13
2022-08-05T19:12:00.426Z,99030.44
2022-08-05T19:14:44.922Z,99040.00
2022-08-05T19:17:16.811Z,99043.69
2022-08-05T19:19:46.346Z,99050.59
2022-08-05T19:22:17.209Z,99059.19
2022-08-05T19:24:54.698Z,99061.84
2022-08-05T19:27:24.087Z,99064.38
2022-08-05T19:29:56.535Z,99071.97
2022-08-05T19:32:26.109Z,99075.47
2022-08-05T19:34:55.230Z,99093.31
2022-08-05T19:37:29.879Z,99089.97
2022-08-05T19:40:11.311Z,99099.50
2022-08-05T19:42:39.139Z,99109.47
2022-08-05T19:45:07.163Z,99111.84
2022-08-05T19:47:37.163Z,99111.84
2022-08-05T19:50:07.586Z,99121.09
2022-08-05T19:52:37.144Z,99126.44
2022-08-05T19:55:06.744Z,99122.66
2022-08-05T19:57:49.058Z,99126.69
2022-08-05T20:00:20.954Z,99133.38
2022-08-05T20:02:47.602Z,99139.00
2022-08-05T20:05:16.437Z,99140.06
2022-08-05T20:07:58.799Z,99150.72
2022-08-05T20:10:25.947Z,99154.38
2022-08-05T20:12:52.550Z,99154.34
2022-08-05T20:15:48.971Z,99160.78
2022-08-05T20:18:10.584Z,99162.72
2022-08-05T20:20:56.755Z,99176.34
2022-08-05T20:23:40.525Z,99172.09
2022-08-05T20:26:15.283Z,99181.03
2022-08-05T20:28:44.204Z,99182.28
2022-08-05T20:31:11.381Z,99181.97
2022-08-05T20:33:38.146Z,99189.13
2022-08-05T20:36:10.110Z,99195.66
2022-08-05T20:38:37.940Z,99189.78
2022-08-05T20:41:08.078Z,99191.47
2022-08-05T20:43:59.957Z,99200.53
2022-08-05T20:46:25.057Z,99204.31
2022-08-05T20:48:52.410Z,99212.56
2022-08-05T20:51:21.422Z,99220.69
2022-08-05T20:53:55.153Z,99218.25
2022-08-05T20:56:28.797Z,99223.72
2022-08-05T20:58:56.810Z,99234.66
2022-08-05T21:01:40.589Z,99238.41
2022-08-05T21:04:10.320Z,99243.97
2022-08-05T21:06:45.159Z,99254.03
2022-08-05T21:09:14.418Z,99245.44
2022-08-05T21:12:09.346Z,99255.72
2022-08-05T21:14:34.729Z,99255.16
2022-08-05T21:17:05.944Z,99258.78
2022-08-05T21:19:47.159Z,99260.84
2022-08-05T21:22:18.687Z,99263.78
2022-08-05T21:24:51.989Z,99263.16
2022-08-05T21:27:24.729Z,99266.19
2022-08-05T21:29:52.714Z,99270.34
2022-08-05T21:32:22.235Z,99269.88
2022-08-05T21:35:06.941Z,99276.41
2022-08-05T21:37:41.075Z,99274.72
2022-08-05T21:40:13.705Z,99275.94
2022-08-05T21:42:44.733Z,99268.94
2022-08-05T21:45:25.118Z,99265.56
2022-08-05T21:48:01.699Z,99269.44
2022-08-05T21:50:33.724Z,99268.09
2022-08-05T21:53:08.328Z,99273.91
2022-08-05T21:56:06.237Z,99275.47
2022-08-05T21:58:32.038Z,99280.22
2022-08-05T22:00:59.804Z,99268.00
2022-08-05T22:03:52.379Z,99279.59
2022-08-05T22:06:14.006Z,99277.06
2022-08-05T22:08:42.444Z,99278.28
2022-08-05T22:11:11.988Z,99285.88
2022-08-05T22:14:33.608Z,99284.19
2022-08-05T22:16:42.053Z,99285.16
2022-08-05T22:20:03.522Z,99283.47
2022-08-05T22:22:02.859Z,99285.41
2022-08-05T22:24:53.437Z,99288.31
2022-08-05T22:28:09.241Z,99286.31
2022-08-05T22:30:25.319Z,99287.88
2022-08-05T22:33:01.614Z,99287.50
2022-08-05T22:35:38.551Z,99292.97
2022-08-05T22:38:14.883Z,99295.47
2022-08-05T22:40:41.900Z,99295.72
2022-08-05T22:43:16.260Z,99293.50
2022-08-05T22:46:08.786Z,99295.53
2022-08-05T22:48:39.795Z,99296.88
2022-08-05T22:51:07.726Z,99297.47
2022-08-05T22:53:35.784Z,99307.22
2022-08-05T22:56:04.081Z,99310.09
2022-08-05T22:58:36.755Z,99313.44
2022-08-05T23:01:03.402Z,99325.09
2022-08-05T23:03:58.195Z,99325.47
2022-08-05T23:06:19.861Z,99330.63
2022-08-05T23:08:53.000Z,99333.69
2022-08-05T23:11:19.614Z,99333.69
2022-08-05T23:13:46.415Z,99328.22
2022-08-05T23:16:26.176Z,99333.69
2022-08-05T23:19:00.286Z,99332.09
2022-08-05T23:21:42.416Z,99328.69
2022-08-05T23:24:11.670Z,99331.09
2022-08-05T23:26:38.437Z,99335.13
2022-08-05T23:29:05.407Z,99336.56
2022-08-05T23:31:31.997Z,99330.59
2022-08-05T23:34:03.880Z,99340.50
2022-08-05T23:36:39.826Z,99336.97
2022-08-05T23:39:11.017Z,99329.47
2022-08-05T23:41:48.671Z,99339.88
2022-08-05T23:44:16.689Z,99339.22
2022-08-05T23:46:43.534Z,99348.28
2022-08-05T23:49:16.701Z,99347.50
2022-08-05T23:52:02.359Z,99342.19
2022-08-05T23:54:36.349Z,99348.28
2022-08-05T23:57:05.210Z,99345.72
